CFG5MK EDDF-EDDH
Flight info
| Callsign | CFG5MK |
|---|---|
| Flight time | 0h 48m |
| Altitude | 33000 |
| Route | MARUN3W MARUN Y150 TOLGI DCT SAS P605 NOLGO NOLGO3P |
| Aircraft | A321/M-SDE3FGHIRWY/LB1 |
Departure
| Time | 2026-05-04 11:49 |
|---|---|
| Airport | Frankfurt Main Airport (EDDF) |
Arrival
| Time | 2026-05-04 12:37 |
|---|---|
| Airport | Hamburg Helmut Schmidt Airport (EDDH) |
| Time | Latitude | Longitude | Altitude | Speed | Heading |
|---|---|---|---|---|---|
| 2026-05-04 11:08 | 50.04395 | 8.57030 | 360 ft | 0 kts | 159° |
| 2026-05-04 11:40 | 50.04377 | 8.57041 | 367 ft | 4 kts | 159° |
| 2026-05-04 11:41 | 50.04357 | 8.57052 | 361 ft | 3 kts | 159° |
| 2026-05-04 11:41 | 50.04333 | 8.57073 | 362 ft | 4 kts | 134° |
| 2026-05-04 11:41 | 50.04329 | 8.57119 | 361 ft | 6 kts | 82° |
| 2026-05-04 11:41 | 50.04349 | 8.57209 | 363 ft | 12 kts | 69° |
| 2026-05-04 11:42 | 50.04381 | 8.57338 | 363 ft | 14 kts | 69° |
| 2026-05-04 11:42 | 50.04415 | 8.57484 | 364 ft | 15 kts | 70° |
| 2026-05-04 11:42 | 50.04447 | 8.57620 | 367 ft | 12 kts | 70° |
| 2026-05-04 11:42 | 50.04475 | 8.57735 | 367 ft | 11 kts | 69° |
| 2026-05-04 11:43 | 50.04504 | 8.57858 | 367 ft | 13 kts | 69° |
| 2026-05-04 11:43 | 50.04538 | 8.57997 | 366 ft | 15 kts | 69° |
| 2026-05-04 11:43 | 50.04577 | 8.58160 | 366 ft | 16 kts | 70° |
| 2026-05-04 11:43 | 50.04613 | 8.58313 | 372 ft | 14 kts | 70° |
| 2026-05-04 11:44 | 50.04642 | 8.58435 | 369 ft | 9 kts | 70° |
| 2026-05-04 11:44 | 50.04655 | 8.58510 | 371 ft | 6 kts | 90° |
| 2026-05-04 11:44 | 50.04637 | 8.58559 | 370 ft | 5 kts | 143° |
| 2026-05-04 11:44 | 50.04624 | 8.58568 | 369 ft | 0 kts | 155° |
| 2026-05-04 11:45 | 50.04617 | 8.58573 | 369 ft | 4 kts | 155° |
| 2026-05-04 11:45 | 50.04569 | 8.58605 | 373 ft | 10 kts | 158° |
| 2026-05-04 11:45 | 50.04514 | 8.58629 | 371 ft | 7 kts | 181° |
| 2026-05-04 11:46 | 50.04489 | 8.58593 | 370 ft | 4 kts | 245° |
| 2026-05-04 11:46 | 50.04483 | 8.58568 | 370 ft | 0 kts | 249° |
| 2026-05-04 11:47 | 50.04482 | 8.58565 | 370 ft | 3 kts | 249° |
| 2026-05-04 11:48 | 50.04426 | 8.58331 | 371 ft | 56 kts | 250° |
| 2026-05-04 11:48 | 50.04208 | 8.57425 | 367 ft | 119 kts | 249° |
| 2026-05-04 11:48 | 50.03858 | 8.55957 | 360 ft | 168 kts | 249° |
| 2026-05-04 11:48 | 50.03436 | 8.54130 | 670 ft | 181 kts | 251° |
| 2026-05-04 11:49 | 50.03011 | 8.52299 | 1354 ft | 179 kts | 249° |
| 2026-05-04 11:49 | 50.02539 | 8.50521 | 2060 ft | 177 kts | 238° |
| 2026-05-04 11:49 | 50.01714 | 8.49020 | 2453 ft | 192 kts | 218° |
| 2026-05-04 11:49 | 50.00486 | 8.48096 | 2824 ft | 201 kts | 194° |
| 2026-05-04 11:50 | 49.99089 | 8.47772 | 3321 ft | 204 kts | 189° |
| 2026-05-04 11:50 | 49.97680 | 8.47469 | 3838 ft | 205 kts | 190° |
| 2026-05-04 11:50 | 49.96266 | 8.47146 | 4383 ft | 206 kts | 193° |
| 2026-05-04 11:50 | 49.94862 | 8.46528 | 4703 ft | 218 kts | 199° |
| 2026-05-04 11:51 | 49.93327 | 8.45811 | 4934 ft | 241 kts | 199° |
| 2026-05-04 11:51 | 49.91849 | 8.44636 | 5675 ft | 240 kts | 223° |
| 2026-05-04 11:51 | 49.91134 | 8.43340 | 6208 ft | 240 kts | 240° |
| 2026-05-04 11:51 | 49.90632 | 8.40856 | 6968 ft | 243 kts | 266° |
| 2026-05-04 11:52 | 49.90935 | 8.38265 | 7693 ft | 250 kts | 293° |
| 2026-05-04 11:52 | 49.92036 | 8.36135 | 8411 ft | 261 kts | 322° |
| 2026-05-04 11:52 | 49.93689 | 8.34840 | 9000 ft | 275 kts | 334° |
| 2026-05-04 11:52 | 49.95509 | 8.33657 | 9428 ft | 291 kts | 335° |
| 2026-05-04 11:53 | 49.97404 | 8.32452 | 10079 ft | 297 kts | 335° |
| 2026-05-04 11:53 | 49.99326 | 8.31229 | 10728 ft | 302 kts | 335° |
| 2026-05-04 11:53 | 50.01334 | 8.29977 | 11043 ft | 322 kts | 339° |
| 2026-05-04 11:53 | 50.03599 | 8.29140 | 11206 ft | 347 kts | 351° |
| 2026-05-04 11:55 | 50.21066 | 8.36269 | 15373 ft | 388 kts | 18° |
| 2026-05-04 11:55 | 50.23641 | 8.37623 | 15957 ft | 392 kts | 18° |
| 2026-05-04 11:56 | 50.26243 | 8.38994 | 16538 ft | 396 kts | 18° |
| 2026-05-04 11:56 | 50.28866 | 8.40378 | 17109 ft | 401 kts | 18° |
| 2026-05-04 11:56 | 50.31521 | 8.41795 | 17672 ft | 405 kts | 18° |
| 2026-05-04 11:56 | 50.34191 | 8.43242 | 18226 ft | 408 kts | 18° |
| 2026-05-04 11:57 | 50.36887 | 8.44717 | 18713 ft | 412 kts | 18° |
| 2026-05-04 11:57 | 50.39606 | 8.46214 | 19187 ft | 415 kts | 18° |
| 2026-05-04 11:57 | 50.42337 | 8.47720 | 19660 ft | 418 kts | 18° |
| 2026-05-04 11:57 | 50.45096 | 8.49240 | 20120 ft | 422 kts | 18° |
| 2026-05-04 11:58 | 50.47870 | 8.50762 | 20596 ft | 425 kts | 17° |
| 2026-05-04 11:58 | 50.50689 | 8.52214 | 21070 ft | 427 kts | 15° |
| 2026-05-04 11:58 | 50.53544 | 8.53588 | 21545 ft | 430 kts | 15° |
| 2026-05-04 11:58 | 50.56429 | 8.54928 | 22019 ft | 433 kts | 14° |
| 2026-05-04 11:59 | 50.59336 | 8.56265 | 22483 ft | 436 kts | 14° |
| 2026-05-04 11:59 | 50.62252 | 8.57617 | 22939 ft | 439 kts | 14° |
| 2026-05-04 11:59 | 50.65193 | 8.59001 | 23381 ft | 443 kts | 15° |
| 2026-05-04 11:59 | 50.68153 | 8.60415 | 23758 ft | 446 kts | 15° |
| 2026-05-04 12:00 | 50.71132 | 8.61851 | 24123 ft | 449 kts | 15° |
| 2026-05-04 12:00 | 50.74156 | 8.63319 | 24607 ft | 448 kts | 15° |
| 2026-05-04 12:00 | 50.77118 | 8.64820 | 25080 ft | 449 kts | 19° |
| 2026-05-04 12:00 | 50.79950 | 8.66917 | 25557 ft | 451 kts | 28° |
| 2026-05-04 12:01 | 50.82549 | 8.69697 | 26024 ft | 452 kts | 38° |
| 2026-05-04 12:01 | 50.84849 | 8.73087 | 26479 ft | 452 kts | 48° |
| 2026-05-04 12:02 | 50.96317 | 8.96830 | 29133 ft | 455 kts | 53° |
| 2026-05-04 12:03 | 50.98235 | 9.00854 | 29462 ft | 458 kts | 53° |
| 2026-05-04 12:03 | 51.00162 | 9.04908 | 29800 ft | 462 kts | 53° |
| 2026-05-04 12:03 | 51.02095 | 9.08989 | 30092 ft | 465 kts | 53° |
| 2026-05-04 12:03 | 51.04041 | 9.13112 | 30383 ft | 467 kts | 53° |
| 2026-05-04 12:04 | 51.05997 | 9.17254 | 30658 ft | 469 kts | 53° |
| 2026-05-04 12:04 | 51.08130 | 9.21176 | 30934 ft | 471 kts | 44° |
| 2026-05-04 12:04 | 51.10610 | 9.24583 | 31213 ft | 471 kts | 34° |
| 2026-05-04 12:04 | 51.13369 | 9.27393 | 31499 ft | 470 kts | 25° |
| 2026-05-04 12:05 | 51.16341 | 9.29552 | 31803 ft | 469 kts | 17° |
| 2026-05-04 12:05 | 51.19449 | 9.31030 | 32088 ft | 466 kts | 8° |
| 2026-05-04 12:05 | 51.22627 | 9.32134 | 32367 ft | 468 kts | 8° |
| 2026-05-04 12:05 | 51.25821 | 9.33241 | 32632 ft | 470 kts | 8° |
| 2026-05-04 12:06 | 51.29032 | 9.34358 | 32844 ft | 474 kts | 8° |
| 2026-05-04 12:06 | 51.32267 | 9.35483 | 32973 ft | 477 kts | 8° |
| 2026-05-04 12:06 | 51.38771 | 9.37744 | 33002 ft | 479 kts | 8° |
| 2026-05-04 12:07 | 51.45288 | 9.40014 | 33008 ft | 480 kts | 7° |
| 2026-05-04 12:07 | 51.51853 | 9.42310 | 33001 ft | 480 kts | 8° |
| 2026-05-04 12:08 | 51.58388 | 9.44602 | 32995 ft | 480 kts | 8° |
| 2026-05-04 12:08 | 51.64921 | 9.46905 | 32989 ft | 480 kts | 8° |
| 2026-05-04 12:09 | 51.71452 | 9.49218 | 32996 ft | 481 kts | 7° |
| 2026-05-04 12:09 | 51.77981 | 9.51539 | 32972 ft | 481 kts | 7° |
| 2026-05-04 12:10 | 51.84429 | 9.54589 | 32971 ft | 488 kts | 20° |
| 2026-05-04 12:10 | 51.90508 | 9.59561 | 32978 ft | 490 kts | 24° |
| 2026-05-04 12:11 | 51.96586 | 9.64589 | 32973 ft | 491 kts | 23° |
| 2026-05-04 12:11 | 52.02673 | 9.69634 | 32919 ft | 492 kts | 24° |
| 2026-05-04 12:12 | 52.05722 | 9.72172 | 32698 ft | 492 kts | 24° |
| 2026-05-04 12:12 | 52.08772 | 9.74716 | 32427 ft | 493 kts | 24° |
| 2026-05-04 12:12 | 52.11810 | 9.77256 | 32168 ft | 491 kts | 24° |
| 2026-05-04 12:12 | 52.14842 | 9.79802 | 31827 ft | 489 kts | 24° |
| 2026-05-04 12:13 | 52.17861 | 9.82340 | 31443 ft | 487 kts | 23° |
| 2026-05-04 12:14 | 52.39430 | 9.94721 | 27962 ft | 459 kts | 10° |
| 2026-05-04 12:15 | 52.42506 | 9.96081 | 27415 ft | 458 kts | 10° |
| 2026-05-04 12:15 | 52.45577 | 9.97438 | 26861 ft | 456 kts | 10° |
| 2026-05-04 12:15 | 52.48632 | 9.98791 | 26350 ft | 453 kts | 11° |
| 2026-05-04 12:15 | 52.51668 | 10.00143 | 25819 ft | 450 kts | 11° |
| 2026-05-04 12:16 | 52.54677 | 10.01486 | 25310 ft | 446 kts | 11° |
| 2026-05-04 12:16 | 52.57649 | 10.02813 | 24797 ft | 442 kts | 11° |
| 2026-05-04 12:16 | 52.60602 | 10.04131 | 24319 ft | 438 kts | 10° |
| 2026-05-04 12:16 | 52.63531 | 10.05438 | 23821 ft | 434 kts | 10° |
| 2026-05-04 12:17 | 52.66431 | 10.06734 | 23331 ft | 429 kts | 10° |
| 2026-05-04 12:17 | 52.69291 | 10.08011 | 22868 ft | 424 kts | 11° |
| 2026-05-04 12:17 | 52.72123 | 10.09275 | 22427 ft | 419 kts | 11° |
| 2026-05-04 12:17 | 52.74925 | 10.10529 | 21986 ft | 415 kts | 11° |
| 2026-05-04 12:18 | 52.77723 | 10.11567 | 21543 ft | 408 kts | 3° |
| 2026-05-04 12:18 | 52.80524 | 10.11877 | 21119 ft | 400 kts | 356° |
| 2026-05-04 12:18 | 52.83296 | 10.11960 | 20693 ft | 398 kts | 355° |
| 2026-05-04 12:18 | 52.86057 | 10.12049 | 20230 ft | 395 kts | 356° |
| 2026-05-04 12:19 | 52.88798 | 10.12142 | 19790 ft | 392 kts | 356° |
| 2026-05-04 12:19 | 52.91520 | 10.12237 | 19338 ft | 390 kts | 356° |
| 2026-05-04 12:19 | 52.94224 | 10.12332 | 18881 ft | 387 kts | 356° |
| 2026-05-04 12:19 | 52.96904 | 10.12424 | 18437 ft | 385 kts | 356° |
| 2026-05-04 12:20 | 52.99573 | 10.12510 | 17948 ft | 382 kts | 356° |
| 2026-05-04 12:20 | 53.02214 | 10.12595 | 17502 ft | 379 kts | 356° |
| 2026-05-04 12:20 | 53.04839 | 10.12682 | 17060 ft | 376 kts | 356° |
| 2026-05-04 12:20 | 53.07446 | 10.12768 | 16619 ft | 374 kts | 356° |
| 2026-05-04 12:21 | 53.10038 | 10.12854 | 16185 ft | 371 kts | 356° |
| 2026-05-04 12:21 | 53.12613 | 10.12937 | 15752 ft | 368 kts | 356° |
| 2026-05-04 12:21 | 53.15158 | 10.13017 | 15325 ft | 365 kts | 357° |
| 2026-05-04 12:21 | 53.17686 | 10.13097 | 14892 ft | 361 kts | 357° |
| 2026-05-04 12:22 | 53.20190 | 10.13178 | 14472 ft | 358 kts | 357° |
| 2026-05-04 12:22 | 53.22674 | 10.13264 | 14054 ft | 355 kts | 357° |
| 2026-05-04 12:22 | 53.25138 | 10.13352 | 13609 ft | 353 kts | 357° |
| 2026-05-04 12:22 | 53.27608 | 10.13441 | 13161 ft | 349 kts | 357° |
| 2026-05-04 12:23 | 53.30027 | 10.13526 | 12736 ft | 346 kts | 357° |
| 2026-05-04 12:23 | 53.32423 | 10.13608 | 12304 ft | 343 kts | 357° |
| 2026-05-04 12:23 | 53.33999 | 10.13659 | 12022 ft | 341 kts | 357° |
| 2026-05-04 12:23 | 53.36355 | 10.13734 | 11594 ft | 338 kts | 357° |
| 2026-05-04 12:24 | 53.38703 | 10.13807 | 11165 ft | 336 kts | 358° |
| 2026-05-04 12:24 | 53.41016 | 10.13671 | 10736 ft | 331 kts | 352° |
| 2026-05-04 12:24 | 53.43300 | 10.13372 | 10392 ft | 326 kts | 352° |
| 2026-05-04 12:24 | 53.45524 | 10.13091 | 10160 ft | 314 kts | 352° |
| 2026-05-04 12:25 | 53.47657 | 10.12827 | 9920 ft | 302 kts | 352° |
| 2026-05-04 12:25 | 53.49715 | 10.12572 | 9658 ft | 291 kts | 352° |
| 2026-05-04 12:25 | 53.51702 | 10.12321 | 9395 ft | 281 kts | 352° |
| 2026-05-04 12:25 | 53.53621 | 10.12076 | 9139 ft | 272 kts | 352° |
| 2026-05-04 12:26 | 53.55482 | 10.11839 | 8873 ft | 264 kts | 352° |
| 2026-05-04 12:26 | 53.57317 | 10.12042 | 8621 ft | 263 kts | 11° |
| 2026-05-04 12:26 | 53.58992 | 10.13262 | 8366 ft | 264 kts | 32° |
| 2026-05-04 12:26 | 53.60324 | 10.15367 | 8110 ft | 263 kts | 49° |
| 2026-05-04 12:27 | 53.61468 | 10.17711 | 7847 ft | 261 kts | 48° |
| 2026-05-04 12:27 | 53.62627 | 10.20057 | 7573 ft | 259 kts | 48° |
| 2026-05-04 12:27 | 53.63795 | 10.22410 | 7278 ft | 258 kts | 48° |
| 2026-05-04 12:27 | 53.64944 | 10.24721 | 6991 ft | 256 kts | 48° |
| 2026-05-04 12:28 | 53.66087 | 10.27020 | 6692 ft | 255 kts | 48° |
| 2026-05-04 12:28 | 53.67225 | 10.29308 | 6385 ft | 254 kts | 48° |
| 2026-05-04 12:28 | 53.68352 | 10.31580 | 6071 ft | 252 kts | 48° |
| 2026-05-04 12:28 | 53.69475 | 10.33848 | 5759 ft | 251 kts | 47° |
| 2026-05-04 12:29 | 53.70592 | 10.36108 | 5449 ft | 250 kts | 47° |
| 2026-05-04 12:29 | 53.71702 | 10.38355 | 5186 ft | 248 kts | 47° |
| 2026-05-04 12:29 | 53.72927 | 10.40312 | 4935 ft | 240 kts | 26° |
| 2026-05-04 12:29 | 53.74450 | 10.41224 | 4701 ft | 229 kts | 1° |
| 2026-05-04 12:30 | 53.75996 | 10.40993 | 4519 ft | 220 kts | 338° |
| 2026-05-04 12:30 | 53.77315 | 10.39775 | 4312 ft | 213 kts | 316° |
| 2026-05-04 12:30 | 53.78216 | 10.37842 | 4152 ft | 209 kts | 295° |
| 2026-05-04 12:30 | 53.78608 | 10.35501 | 4027 ft | 207 kts | 274° |
| 2026-05-04 12:31 | 53.78450 | 10.33091 | 3890 ft | 208 kts | 253° |
| 2026-05-04 12:31 | 53.77992 | 10.30775 | 3779 ft | 208 kts | 252° |
| 2026-05-04 12:31 | 53.77490 | 10.28483 | 3653 ft | 208 kts | 244° |
| 2026-05-04 12:31 | 53.76664 | 10.26473 | 3516 ft | 210 kts | 230° |
| 2026-05-04 12:32 | 53.75695 | 10.24616 | 3267 ft | 209 kts | 231° |
| 2026-05-04 12:32 | 53.73876 | 10.21008 | 2879 ft | 195 kts | 232° |
| 2026-05-04 12:32 | 53.73045 | 10.19259 | 2722 ft | 185 kts | 233° |
| 2026-05-04 12:33 | 53.72251 | 10.17598 | 2616 ft | 179 kts | 233° |
| 2026-05-04 12:33 | 53.71467 | 10.15991 | 2472 ft | 175 kts | 233° |
| 2026-05-04 12:33 | 53.70708 | 10.14432 | 2246 ft | 168 kts | 232° |
| 2026-05-04 12:33 | 53.69979 | 10.12955 | 2010 ft | 157 kts | 233° |
| 2026-05-04 12:34 | 53.69323 | 10.11624 | 1873 ft | 143 kts | 235° |
| 2026-05-04 12:34 | 53.68701 | 10.10339 | 1652 ft | 140 kts | 234° |
| 2026-05-04 12:34 | 53.68082 | 10.09093 | 1433 ft | 137 kts | 236° |
| 2026-05-04 12:34 | 53.67475 | 10.07846 | 1245 ft | 138 kts | 235° |
| 2026-05-04 12:35 | 53.66865 | 10.06587 | 1022 ft | 139 kts | 233° |
| 2026-05-04 12:35 | 53.66243 | 10.05323 | 886 ft | 138 kts | 236° |
| 2026-05-04 12:35 | 53.65631 | 10.04070 | 707 ft | 140 kts | 232° |
| 2026-05-04 12:35 | 53.65002 | 10.02806 | 554 ft | 140 kts | 233° |
| 2026-05-04 12:36 | 53.64384 | 10.01552 | 361 ft | 138 kts | 233° |
| 2026-05-04 12:36 | 53.63769 | 10.00312 | 143 ft | 136 kts | 234° |
| 2026-05-04 12:36 | 53.63180 | 9.99110 | 47 ft | 124 kts | 231° |
| 2026-05-04 12:36 | 53.62760 | 9.98257 | 43 ft | 68 kts | 230° |
| 2026-05-04 12:37 | 53.62575 | 9.97885 | 41 ft | 19 kts | 230° |
| 2026-05-04 12:37 | 53.62500 | 9.97782 | 41 ft | 15 kts | 192° |
| 2026-05-04 12:37 | 53.62430 | 9.97865 | 45 ft | 11 kts | 107° |
| 2026-05-04 12:37 | 53.62435 | 9.97985 | 47 ft | 10 kts | 78° |
| 2026-05-04 12:38 | 53.62452 | 9.98119 | 45 ft | 16 kts | 79° |
| 2026-05-04 12:38 | 53.62475 | 9.98321 | 47 ft | 18 kts | 79° |
| 2026-05-04 12:38 | 53.62497 | 9.98517 | 45 ft | 17 kts | 79° |
| 2026-05-04 12:38 | 53.62519 | 9.98711 | 47 ft | 17 kts | 79° |
| 2026-05-04 12:39 | 53.62543 | 9.98918 | 47 ft | 19 kts | 79° |
| 2026-05-04 12:39 | 53.62567 | 9.99131 | 44 ft | 18 kts | 79° |
| 2026-05-04 12:39 | 53.62590 | 9.99334 | 47 ft | 17 kts | 79° |
| 2026-05-04 12:39 | 53.62612 | 9.99525 | 47 ft | 15 kts | 79° |
| 2026-05-04 12:40 | 53.62630 | 9.99683 | 47 ft | 13 kts | 79° |
| 2026-05-04 12:40 | 53.62660 | 9.99821 | 44 ft | 13 kts | 49° |
| 2026-05-04 12:40 | 53.62733 | 9.99897 | 46 ft | 12 kts | 27° |
| 2026-05-04 12:40 | 53.62802 | 9.99962 | 47 ft | 10 kts | 30° |
| 2026-05-04 12:41 | 53.62854 | 10.00019 | 46 ft | 8 kts | 39° |
| 2026-05-04 12:41 | 53.62898 | 10.00080 | 48 ft | 7 kts | 39° |
| 2026-05-04 12:41 | 53.62915 | 10.00137 | 48 ft | 6 kts | 100° |
| 2026-05-04 12:41 | 53.62899 | 10.00192 | 48 ft | 2 kts | 121° |
| 2026-05-04 12:42 | 53.62891 | 10.00213 | 48 ft | 2 kts | 121° |
| 2026-05-04 12:42 | 53.62889 | 10.00219 | 46 ft | 0 kts | 121° |